sensor_id;sensor_type;location;lat;lon;timestamp;P1;durP1;ratioP1;P2;durP2;ratioP2
15915;SDS011;8057;47.830;-3.870;2023-04-21T00:01:09;4.90;;;3.63;;
15915;SDS011;8057;47.830;-3.870;2023-04-21T00:05:21;4.70;;;3.53;;
15915;SDS011;8057;47.830;-3.870;2023-04-21T00:09:30;4.47;;;3.20;;
15915;SDS011;8057;47.830;-3.870;2023-04-21T00:13:39;6.93;;;3.90;;
15915;SDS011;8057;47.830;-3.870;2023-04-21T00:17:48;7.97;;;3.97;;
15915;SDS011;8057;47.830;-3.870;2023-04-21T00:21:59;6.30;;;3.53;;
15915;SDS011;8057;47.830;-3.870;2023-04-21T00:26:10;12.00;;;4.17;;
15915;SDS011;8057;47.830;-3.870;2023-04-21T00:30:19;7.47;;;3.80;;
15915;SDS011;8057;47.830;-3.870;2023-04-21T00:34:28;8.63;;;4.20;;
15915;SDS011;8057;47.830;-3.870;2023-04-21T00:38:39;6.37;;;3.77;;
15915;SDS011;8057;47.830;-3.870;2023-04-21T00:42:48;5.70;;;4.00;;
15915;SDS011;8057;47.830;-3.870;2023-04-21T00:46:57;7.77;;;4.53;;
15915;SDS011;8057;47.830;-3.870;2023-04-21T00:51:06;8.23;;;4.17;;
15915;SDS011;8057;47.830;-3.870;2023-04-21T00:55:17;6.20;;;4.37;;
15915;SDS011;8057;47.830;-3.870;2023-04-21T00:59:26;6.50;;;4.43;;
15915;SDS011;8057;47.830;-3.870;2023-04-21T01:03:35;5.83;;;4.00;;
15915;SDS011;8057;47.830;-3.870;2023-04-21T01:07:45;11.80;;;4.80;;
15915;SDS011;8057;47.830;-3.870;2023-04-21T01:12:02;6.40;;;4.17;;
15915;SDS011;8057;47.830;-3.870;2023-04-21T01:16:15;9.20;;;4.37;;
15915;SDS011;8057;47.830;-3.870;2023-04-21T01:20:24;5.50;;;4.13;;
15915;SDS011;8057;47.830;-3.870;2023-04-21T01:24:38;4.40;;;4.00;;
15915;SDS011;8057;47.830;-3.870;2023-04-21T01:28:48;8.13;;;4.00;;
15915;SDS011;8057;47.830;-3.870;2023-04-21T01:32:57;7.63;;;4.43;;
15915;SDS011;8057;47.830;-3.870;2023-04-21T01:37:07;5.17;;;4.20;;
15915;SDS011;8057;47.830;-3.870;2023-04-21T01:41:18;4.67;;;3.80;;
15915;SDS011;8057;47.830;-3.870;2023-04-21T01:45:27;5.73;;;4.00;;
15915;SDS011;8057;47.830;-3.870;2023-04-21T01:49:36;6.10;;;4.30;;
15915;SDS011;8057;47.830;-3.870;2023-04-21T01:53:45;4.70;;;3.60;;
15915;SDS011;8057;47.830;-3.870;2023-04-21T01:57:55;5.63;;;3.87;;
15915;SDS011;8057;47.830;-3.870;2023-04-21T02:02:05;4.77;;;3.80;;
15915;SDS011;8057;47.830;-3.870;2023-04-21T02:06:14;5.37;;;4.03;;
15915;SDS011;8057;47.830;-3.870;2023-04-21T02:10:23;5.83;;;4.07;;
15915;SDS011;8057;47.830;-3.870;2023-04-21T02:14:35;4.30;;;3.33;;
15915;SDS011;8057;47.830;-3.870;2023-04-21T02:18:44;7.00;;;3.50;;
15915;SDS011;8057;47.830;-3.870;2023-04-21T02:22:54;5.90;;;3.43;;
15915;SDS011;8057;47.830;-3.870;2023-04-21T02:27:03;7.27;;;3.97;;
15915;SDS011;8057;47.830;-3.870;2023-04-21T02:31:14;8.87;;;4.27;;
15915;SDS011;8057;47.830;-3.870;2023-04-21T02:35:23;8.07;;;4.03;;
15915;SDS011;8057;47.830;-3.870;2023-04-21T02:39:32;6.00;;;4.07;;
15915;SDS011;8057;47.830;-3.870;2023-04-21T02:43:42;6.27;;;3.83;;
15915;SDS011;8057;47.830;-3.870;2023-04-21T02:47:52;7.53;;;4.03;;
15915;SDS011;8057;47.830;-3.870;2023-04-21T02:52:01;6.83;;;4.30;;
15915;SDS011;8057;47.830;-3.870;2023-04-21T02:56:10;6.17;;;4.10;;
15915;SDS011;8057;47.830;-3.870;2023-04-21T03:00:19;5.40;;;4.80;;
15915;SDS011;8057;47.830;-3.870;2023-04-21T03:04:30;7.50;;;4.53;;
15915;SDS011;8057;47.830;-3.870;2023-04-21T03:08:40;6.17;;;4.40;;
15915;SDS011;8057;47.830;-3.870;2023-04-21T03:12:49;6.50;;;4.53;;
15915;SDS011;8057;47.830;-3.870;2023-04-21T03:16:57;7.60;;;4.53;;
15915;SDS011;8057;47.830;-3.870;2023-04-21T03:21:08;8.27;;;4.70;;
15915;SDS011;8057;47.830;-3.870;2023-04-21T03:25:17;7.57;;;5.00;;
15915;SDS011;8057;47.830;-3.870;2023-04-21T03:29:26;6.47;;;4.60;;
15915;SDS011;8057;47.830;-3.870;2023-04-21T03:33:35;8.57;;;4.77;;
15915;SDS011;8057;47.830;-3.870;2023-04-21T03:37:45;7.40;;;4.80;;
15915;SDS011;8057;47.830;-3.870;2023-04-21T03:41:55;6.50;;;4.50;;
15915;SDS011;8057;47.830;-3.870;2023-04-21T03:46:04;5.53;;;4.47;;
15915;SDS011;8057;47.830;-3.870;2023-04-21T03:50:13;5.90;;;4.83;;
15915;SDS011;8057;47.830;-3.870;2023-04-21T03:54:24;5.57;;;4.70;;
15915;SDS011;8057;47.830;-3.870;2023-04-21T03:58:33;8.23;;;5.90;;
15915;SDS011;8057;47.830;-3.870;2023-04-21T04:02:42;5.50;;;5.00;;
15915;SDS011;8057;47.830;-3.870;2023-04-21T04:06:52;8.90;;;5.70;;
15915;SDS011;8057;47.830;-3.870;2023-04-21T04:11:02;8.97;;;5.07;;
15915;SDS011;8057;47.830;-3.870;2023-04-21T04:15:11;10.00;;;5.67;;
15915;SDS011;8057;47.830;-3.870;2023-04-21T04:19:20;8.77;;;5.50;;
15915;SDS011;8057;47.830;-3.870;2023-04-21T04:23:29;7.80;;;5.67;;
15915;SDS011;8057;47.830;-3.870;2023-04-21T04:27:40;8.20;;;6.03;;
15915;SDS011;8057;47.830;-3.870;2023-04-21T04:31:50;7.10;;;5.10;;
15915;SDS011;8057;47.830;-3.870;2023-04-21T04:35:59;7.17;;;5.33;;
15915;SDS011;8057;47.830;-3.870;2023-04-21T04:40:08;7.03;;;5.00;;
15915;SDS011;8057;47.830;-3.870;2023-04-21T04:44:19;8.97;;;5.23;;
15915;SDS011;8057;47.830;-3.870;2023-04-21T04:48:29;6.63;;;5.60;;
15915;SDS011;8057;47.830;-3.870;2023-04-21T04:52:38;9.23;;;5.57;;
15915;SDS011;8057;47.830;-3.870;2023-04-21T04:56:47;8.43;;;5.00;;
15915;SDS011;8057;47.830;-3.870;2023-04-21T05:00:57;9.83;;;5.17;;
15915;SDS011;8057;47.830;-3.870;2023-04-21T05:05:06;7.40;;;5.37;;
15915;SDS011;8057;47.830;-3.870;2023-04-21T05:09:16;7.43;;;5.60;;
15915;SDS011;8057;47.830;-3.870;2023-04-21T05:13:25;10.37;;;5.57;;
15915;SDS011;8057;47.830;-3.870;2023-04-21T05:17:35;6.53;;;5.10;;
15915;SDS011;8057;47.830;-3.870;2023-04-21T05:21:44;6.97;;;5.20;;
15915;SDS011;8057;47.830;-3.870;2023-04-21T05:25:53;7.20;;;5.30;;
15915;SDS011;8057;47.830;-3.870;2023-04-21T05:30:03;7.53;;;4.70;;
15915;SDS011;8057;47.830;-3.870;2023-04-21T05:34:14;5.80;;;4.70;;
15915;SDS011;8057;47.830;-3.870;2023-04-21T05:38:23;5.83;;;5.03;;
15915;SDS011;8057;47.830;-3.870;2023-04-21T05:42:33;8.37;;;5.40;;
15915;SDS011;8057;47.830;-3.870;2023-04-21T05:46:42;6.77;;;4.97;;
15915;SDS011;8057;47.830;-3.870;2023-04-21T05:50:52;6.90;;;5.13;;
15915;SDS011;8057;47.830;-3.870;2023-04-21T05:55:01;9.50;;;5.80;;
15915;SDS011;8057;47.830;-3.870;2023-04-21T05:59:11;7.23;;;5.43;;
15915;SDS011;8057;47.830;-3.870;2023-04-21T06:03:20;7.17;;;5.73;;
15915;SDS011;8057;47.830;-3.870;2023-04-21T06:07:31;9.37;;;5.70;;
15915;SDS011;8057;47.830;-3.870;2023-04-21T06:11:42;8.50;;;5.90;;
15915;SDS011;8057;47.830;-3.870;2023-04-21T06:15:51;10.40;;;6.97;;
15915;SDS011;8057;47.830;-3.870;2023-04-21T06:20:00;11.30;;;7.30;;
15915;SDS011;8057;47.830;-3.870;2023-04-21T06:24:11;9.23;;;7.07;;
15915;SDS011;8057;47.830;-3.870;2023-04-21T06:28:20;11.20;;;8.07;;
15915;SDS011;8057;47.830;-3.870;2023-04-21T06:32:29;16.20;;;8.10;;
15915;SDS011;8057;47.830;-3.870;2023-04-21T06:36:40;10.80;;;7.77;;
15915;SDS011;8057;47.830;-3.870;2023-04-21T06:40:50;10.17;;;8.37;;
15915;SDS011;8057;47.830;-3.870;2023-04-21T06:44:59;11.47;;;7.97;;
15915;SDS011;8057;47.830;-3.870;2023-04-21T06:49:08;12.50;;;8.77;;
15915;SDS011;8057;47.830;-3.870;2023-04-21T06:53:17;11.40;;;8.67;;
15915;SDS011;8057;47.830;-3.870;2023-04-21T06:57:29;12.67;;;8.90;;
15915;SDS011;8057;47.830;-3.870;2023-04-21T07:01:37;11.43;;;9.07;;
15915;SDS011;8057;47.830;-3.870;2023-04-21T07:05:46;13.37;;;10.27;;
15915;SDS011;8057;47.830;-3.870;2023-04-21T07:09:55;13.67;;;10.93;;
15915;SDS011;8057;47.830;-3.870;2023-04-21T07:14:06;11.57;;;10.27;;
15915;SDS011;8057;47.830;-3.870;2023-04-21T07:18:15;13.30;;;11.57;;
15915;SDS011;8057;47.830;-3.870;2023-04-21T07:22:24;15.40;;;12.37;;
15915;SDS011;8057;47.830;-3.870;2023-04-21T07:26:33;13.97;;;12.33;;
15915;SDS011;8057;47.830;-3.870;2023-04-21T07:30:43;12.87;;;11.47;;
15915;SDS011;8057;47.830;-3.870;2023-04-21T07:34:52;16.70;;;12.53;;
15915;SDS011;8057;47.830;-3.870;2023-04-21T07:39:01;14.70;;;12.70;;
15915;SDS011;8057;47.830;-3.870;2023-04-21T07:43:10;15.77;;;13.70;;
15915;SDS011;8057;47.830;-3.870;2023-04-21T07:47:21;14.97;;;13.47;;
15915;SDS011;8057;47.830;-3.870;2023-04-21T07:51:30;15.87;;;13.50;;
15915;SDS011;8057;47.830;-3.870;2023-04-21T07:55:39;13.83;;;12.43;;
15915;SDS011;8057;47.830;-3.870;2023-04-21T07:59:48;15.40;;;13.90;;
15915;SDS011;8057;47.830;-3.870;2023-04-21T08:03:59;15.30;;;13.70;;
15915;SDS011;8057;47.830;-3.870;2023-04-21T08:08:08;15.37;;;13.90;;
15915;SDS011;8057;47.830;-3.870;2023-04-21T08:12:17;14.73;;;13.23;;
15915;SDS011;8057;47.830;-3.870;2023-04-21T08:16:26;14.40;;;12.77;;
15915;SDS011;8057;47.830;-3.870;2023-04-21T08:20:37;15.97;;;14.43;;
15915;SDS011;8057;47.830;-3.870;2023-04-21T08:24:46;13.60;;;12.30;;
15915;SDS011;8057;47.830;-3.870;2023-04-21T08:28:55;15.70;;;14.00;;
15915;SDS011;8057;47.830;-3.870;2023-04-21T08:33:08;14.17;;;12.77;;
15915;SDS011;8057;47.830;-3.870;2023-04-21T08:37:21;14.43;;;12.90;;
15915;SDS011;8057;47.830;-3.870;2023-04-21T08:41:30;14.33;;;12.83;;
15915;SDS011;8057;47.830;-3.870;2023-04-21T08:45:39;13.50;;;12.17;;
15915;SDS011;8057;47.830;-3.870;2023-04-21T08:49:50;14.60;;;13.10;;
15915;SDS011;8057;47.830;-3.870;2023-04-21T08:54:01;14.53;;;13.27;;
15915;SDS011;8057;47.830;-3.870;2023-04-21T08:58:10;15.40;;;13.90;;
15915;SDS011;8057;47.830;-3.870;2023-04-21T09:02:20;14.67;;;13.10;;
15915;SDS011;8057;47.830;-3.870;2023-04-21T09:06:38;15.00;;;13.53;;
15915;SDS011;8057;47.830;-3.870;2023-04-21T09:10:50;14.17;;;12.77;;
15915;SDS011;8057;47.830;-3.870;2023-04-21T09:15:03;12.90;;;11.77;;
15915;SDS011;8057;47.830;-3.870;2023-04-21T09:19:12;14.13;;;12.83;;
15915;SDS011;8057;47.830;-3.870;2023-04-21T09:23:22;14.60;;;13.23;;
15915;SDS011;8057;47.830;-3.870;2023-04-21T09:27:32;15.73;;;14.23;;
15915;SDS011;8057;47.830;-3.870;2023-04-21T09:31:43;15.67;;;14.23;;
15915;SDS011;8057;47.830;-3.870;2023-04-21T09:35:52;15.00;;;13.60;;
15915;SDS011;8057;47.830;-3.870;2023-04-21T09:40:01;15.67;;;14.27;;
15915;SDS011;8057;47.830;-3.870;2023-04-21T09:44:12;14.90;;;13.57;;
15915;SDS011;8057;47.830;-3.870;2023-04-21T09:48:24;14.13;;;12.93;;
15915;SDS011;8057;47.830;-3.870;2023-04-21T09:52:38;15.93;;;14.43;;
15915;SDS011;8057;47.830;-3.870;2023-04-21T09:56:48;15.00;;;13.70;;
15915;SDS011;8057;47.830;-3.870;2023-04-21T10:01:03;16.17;;;14.73;;
15915;SDS011;8057;47.830;-3.870;2023-04-21T10:05:13;14.47;;;13.27;;
15915;SDS011;8057;47.830;-3.870;2023-04-21T10:09:22;14.80;;;13.50;;
15915;SDS011;8057;47.830;-3.870;2023-04-21T10:13:34;13.17;;;12.07;;
15915;SDS011;8057;47.830;-3.870;2023-04-21T10:17:46;13.70;;;12.40;;
15915;SDS011;8057;47.830;-3.870;2023-04-21T10:21:55;12.10;;;11.10;;
15915;SDS011;8057;47.830;-3.870;2023-04-21T10:26:05;11.17;;;10.17;;
15915;SDS011;8057;47.830;-3.870;2023-04-21T10:30:19;10.97;;;9.97;;
15915;SDS011;8057;47.830;-3.870;2023-04-21T10:34:36;9.53;;;8.70;;
15915;SDS011;8057;47.830;-3.870;2023-04-21T10:38:53;11.27;;;10.17;;
15915;SDS011;8057;47.830;-3.870;2023-04-21T10:43:03;11.60;;;10.50;;
15915;SDS011;8057;47.830;-3.870;2023-04-21T10:47:12;11.00;;;10.10;;
15915;SDS011;8057;47.830;-3.870;2023-04-21T10:51:32;11.20;;;10.20;;
15915;SDS011;8057;47.830;-3.870;2023-04-21T10:56:22;11.13;;;10.13;;
15915;SDS011;8057;47.830;-3.870;2023-04-21T11:00:32;11.37;;;10.37;;
15915;SDS011;8057;47.830;-3.870;2023-04-21T11:04:41;12.93;;;11.73;;
15915;SDS011;8057;47.830;-3.870;2023-04-21T11:08:56;11.57;;;10.60;;
15915;SDS011;8057;47.830;-3.870;2023-04-21T11:13:05;13.70;;;12.23;;
15915;SDS011;8057;47.830;-3.870;2023-04-21T11:17:15;14.63;;;13.33;;
15915;SDS011;8057;47.830;-3.870;2023-04-21T11:21:26;14.33;;;12.93;;
15915;SDS011;8057;47.830;-3.870;2023-04-21T11:25:39;14.47;;;13.17;;
15915;SDS011;8057;47.830;-3.870;2023-04-21T11:29:48;14.60;;;13.30;;
15915;SDS011;8057;47.830;-3.870;2023-04-21T11:33:58;14.73;;;13.40;;
15915;SDS011;8057;47.830;-3.870;2023-04-21T11:38:07;15.50;;;14.07;;
15915;SDS011;8057;47.830;-3.870;2023-04-21T11:42:20;14.83;;;13.33;;
15915;SDS011;8057;47.830;-3.870;2023-04-21T11:46:30;13.67;;;12.47;;
15915;SDS011;8057;47.830;-3.870;2023-04-21T11:50:39;13.23;;;12.03;;
15915;SDS011;8057;47.830;-3.870;2023-04-21T11:54:54;13.33;;;11.97;;
15915;SDS011;8057;47.830;-3.870;2023-04-21T11:59:09;13.57;;;12.27;;
15915;SDS011;8057;47.830;-3.870;2023-04-21T12:03:19;13.77;;;12.37;;
15915;SDS011;8057;47.830;-3.870;2023-04-21T12:07:30;13.03;;;11.83;;
15915;SDS011;8057;47.830;-3.870;2023-04-21T12:11:39;13.23;;;12.00;;
15915;SDS011;8057;47.830;-3.870;2023-04-21T12:15:50;13.40;;;12.23;;
15915;SDS011;8057;47.830;-3.870;2023-04-21T12:19:59;12.27;;;11.17;;
15915;SDS011;8057;47.830;-3.870;2023-04-21T12:24:12;13.47;;;12.37;;
15915;SDS011;8057;47.830;-3.870;2023-04-21T12:28:21;13.57;;;12.27;;
15915;SDS011;8057;47.830;-3.870;2023-04-21T12:32:32;13.47;;;12.27;;
15915;SDS011;8057;47.830;-3.870;2023-04-21T12:36:41;15.00;;;13.60;;
15915;SDS011;8057;47.830;-3.870;2023-04-21T12:40:50;15.30;;;13.90;;
15915;SDS011;8057;47.830;-3.870;2023-04-21T12:44:59;14.67;;;13.27;;
15915;SDS011;8057;47.830;-3.870;2023-04-21T12:49:09;14.80;;;13.40;;
15915;SDS011;8057;47.830;-3.870;2023-04-21T12:53:20;14.70;;;13.30;;
15915;SDS011;8057;47.830;-3.870;2023-04-21T12:57:29;12.13;;;11.13;;
15915;SDS011;8057;47.830;-3.870;2023-04-21T13:01:39;11.00;;;9.90;;
15915;SDS011;8057;47.830;-3.870;2023-04-21T13:05:51;9.33;;;8.53;;
15915;SDS011;8057;47.830;-3.870;2023-04-21T13:10:00;8.87;;;8.00;;
15915;SDS011;8057;47.830;-3.870;2023-04-21T13:14:10;9.83;;;8.93;;
15915;SDS011;8057;47.830;-3.870;2023-04-21T13:18:21;10.97;;;9.93;;
15915;SDS011;8057;47.830;-3.870;2023-04-21T13:22:31;9.47;;;8.47;;
15915;SDS011;8057;47.830;-3.870;2023-04-21T13:26:41;10.20;;;9.27;;
15915;SDS011;8057;47.830;-3.870;2023-04-21T13:30:50;10.00;;;9.10;;
15915;SDS011;8057;47.830;-3.870;2023-04-21T13:35:00;9.60;;;8.77;;
15915;SDS011;8057;47.830;-3.870;2023-04-21T13:39:16;10.47;;;9.47;;
15915;SDS011;8057;47.830;-3.870;2023-04-21T13:43:25;10.13;;;9.13;;
15915;SDS011;8057;47.830;-3.870;2023-04-21T13:47:34;9.83;;;8.93;;
15915;SDS011;8057;47.830;-3.870;2023-04-21T13:51:42;9.43;;;8.63;;
15915;SDS011;8057;47.830;-3.870;2023-04-21T13:55:53;9.13;;;8.43;;
15915;SDS011;8057;47.830;-3.870;2023-04-21T14:00:03;10.27;;;9.47;;
15915;SDS011;8057;47.830;-3.870;2023-04-21T14:04:16;11.57;;;10.57;;
15915;SDS011;8057;47.830;-3.870;2023-04-21T14:08:27;9.93;;;8.90;;
15915;SDS011;8057;47.830;-3.870;2023-04-21T14:12:37;13.10;;;10.20;;
15915;SDS011;8057;47.830;-3.870;2023-04-21T14:16:46;11.40;;;10.40;;
15915;SDS011;8057;47.830;-3.870;2023-04-21T14:20:56;10.50;;;9.60;;
15915;SDS011;8057;47.830;-3.870;2023-04-21T14:25:05;9.43;;;8.53;;
15915;SDS011;8057;47.830;-3.870;2023-04-21T14:29:16;9.13;;;8.20;;
15915;SDS011;8057;47.830;-3.870;2023-04-21T14:33:25;9.37;;;8.57;;
15915;SDS011;8057;47.830;-3.870;2023-04-21T14:37:34;10.83;;;9.80;;
15915;SDS011;8057;47.830;-3.870;2023-04-21T14:41:43;9.53;;;8.73;;
15915;SDS011;8057;47.830;-3.870;2023-04-21T14:45:54;8.60;;;7.80;;
15915;SDS011;8057;47.830;-3.870;2023-04-21T14:50:04;8.00;;;7.30;;
15915;SDS011;8057;47.830;-3.870;2023-04-21T14:54:13;7.60;;;6.90;;
15915;SDS011;8057;47.830;-3.870;2023-04-21T14:58:23;6.87;;;5.97;;
15915;SDS011;8057;47.830;-3.870;2023-04-21T15:02:33;7.03;;;6.30;;
15915;SDS011;8057;47.830;-3.870;2023-04-21T15:06:42;6.13;;;4.90;;
15915;SDS011;8057;47.830;-3.870;2023-04-21T15:10:52;5.57;;;5.07;;
15915;SDS011;8057;47.830;-3.870;2023-04-21T15:15:02;5.20;;;4.67;;
15915;SDS011;8057;47.830;-3.870;2023-04-21T15:19:12;6.20;;;5.30;;
15915;SDS011;8057;47.830;-3.870;2023-04-21T15:23:21;6.17;;;5.57;;
15915;SDS011;8057;47.830;-3.870;2023-04-21T15:27:31;5.13;;;4.63;;
15915;SDS011;8057;47.830;-3.870;2023-04-21T15:31:40;5.70;;;4.87;;
15915;SDS011;8057;47.830;-3.870;2023-04-21T15:35:50;5.20;;;4.80;;
15915;SDS011;8057;47.830;-3.870;2023-04-21T15:39:59;4.43;;;4.03;;
15915;SDS011;8057;47.830;-3.870;2023-04-21T15:44:10;7.17;;;5.57;;
15915;SDS011;8057;47.830;-3.870;2023-04-21T15:48:19;5.07;;;4.67;;
15915;SDS011;8057;47.830;-3.870;2023-04-21T15:52:30;6.90;;;5.70;;
15915;SDS011;8057;47.830;-3.870;2023-04-21T15:56:40;6.37;;;5.87;;
15915;SDS011;8057;47.830;-3.870;2023-04-21T16:00:49;6.70;;;5.97;;
15915;SDS011;8057;47.830;-3.870;2023-04-21T16:04:58;7.00;;;6.30;;
15915;SDS011;8057;47.830;-3.870;2023-04-21T16:09:09;6.77;;;6.13;;
15915;SDS011;8057;47.830;-3.870;2023-04-21T16:13:18;6.77;;;6.17;;
15915;SDS011;8057;47.830;-3.870;2023-04-21T16:17:27;6.73;;;6.13;;
15915;SDS011;8057;47.830;-3.870;2023-04-21T16:21:37;8.60;;;7.90;;
15915;SDS011;8057;47.830;-3.870;2023-04-21T16:25:49;8.07;;;7.37;;
15915;SDS011;8057;47.830;-3.870;2023-04-21T16:29:58;8.33;;;7.67;;
15915;SDS011;8057;47.830;-3.870;2023-04-21T16:34:07;9.37;;;8.57;;
15915;SDS011;8057;47.830;-3.870;2023-04-21T16:38:19;8.23;;;7.60;;
15915;SDS011;8057;47.830;-3.870;2023-04-21T16:42:29;10.47;;;9.57;;
15915;SDS011;8057;47.830;-3.870;2023-04-21T16:46:39;12.17;;;10.93;;
15915;SDS011;8057;47.830;-3.870;2023-04-21T16:50:48;11.70;;;10.50;;
15915;SDS011;8057;47.830;-3.870;2023-04-21T16:54:59;12.00;;;10.90;;
15915;SDS011;8057;47.830;-3.870;2023-04-21T16:59:10;10.63;;;9.73;;
15915;SDS011;8057;47.830;-3.870;2023-04-21T17:03:19;11.37;;;10.47;;
15915;SDS011;8057;47.830;-3.870;2023-04-21T17:07:28;11.00;;;10.10;;
15915;SDS011;8057;47.830;-3.870;2023-04-21T17:11:38;12.83;;;11.73;;
15915;SDS011;8057;47.830;-3.870;2023-04-21T17:15:49;12.20;;;11.20;;
15915;SDS011;8057;47.830;-3.870;2023-04-21T17:19:57;14.03;;;12.73;;
15915;SDS011;8057;47.830;-3.870;2023-04-21T17:24:07;13.10;;;11.80;;
15915;SDS011;8057;47.830;-3.870;2023-04-21T17:28:15;10.87;;;9.87;;
15915;SDS011;8057;47.830;-3.870;2023-04-21T17:32:26;11.90;;;10.80;;
15915;SDS011;8057;47.830;-3.870;2023-04-21T17:36:38;12.70;;;11.60;;
15915;SDS011;8057;47.830;-3.870;2023-04-21T17:40:49;12.33;;;11.33;;
15915;SDS011;8057;47.830;-3.870;2023-04-21T17:44:58;11.80;;;10.80;;
15915;SDS011;8057;47.830;-3.870;2023-04-21T17:49:12;12.17;;;11.07;;
15915;SDS011;8057;47.830;-3.870;2023-04-21T17:53:23;10.87;;;9.93;;
15915;SDS011;8057;47.830;-3.870;2023-04-21T17:57:32;12.40;;;11.30;;
15915;SDS011;8057;47.830;-3.870;2023-04-21T18:01:41;9.50;;;8.60;;
15915;SDS011;8057;47.830;-3.870;2023-04-21T18:05:52;12.23;;;11.20;;
15915;SDS011;8057;47.830;-3.870;2023-04-21T18:10:01;11.17;;;10.17;;
15915;SDS011;8057;47.830;-3.870;2023-04-21T18:14:11;10.63;;;9.73;;
15915;SDS011;8057;47.830;-3.870;2023-04-21T18:18:20;10.43;;;9.43;;
15915;SDS011;8057;47.830;-3.870;2023-04-21T18:22:31;10.87;;;9.93;;
15915;SDS011;8057;47.830;-3.870;2023-04-21T18:26:40;11.93;;;10.97;;
15915;SDS011;8057;47.830;-3.870;2023-04-21T18:30:49;11.20;;;10.13;;
15915;SDS011;8057;47.830;-3.870;2023-04-21T18:34:58;11.10;;;10.00;;
15915;SDS011;8057;47.830;-3.870;2023-04-21T18:39:09;11.97;;;10.97;;
15915;SDS011;8057;47.830;-3.870;2023-04-21T18:43:18;10.30;;;9.37;;
15915;SDS011;8057;47.830;-3.870;2023-04-21T18:47:27;10.00;;;9.20;;
15915;SDS011;8057;47.830;-3.870;2023-04-21T18:51:36;9.67;;;8.87;;
15915;SDS011;8057;47.830;-3.870;2023-04-21T18:55:46;10.70;;;9.80;;
15915;SDS011;8057;47.830;-3.870;2023-04-21T18:59:55;10.67;;;9.67;;
15915;SDS011;8057;47.830;-3.870;2023-04-21T19:04:05;11.00;;;10.10;;
15915;SDS011;8057;47.830;-3.870;2023-04-21T19:08:16;10.77;;;9.87;;
15915;SDS011;8057;47.830;-3.870;2023-04-21T19:12:45;14.57;;;13.33;;
15915;SDS011;8057;47.830;-3.870;2023-04-21T19:16:54;14.33;;;12.93;;
15915;SDS011;8057;47.830;-3.870;2023-04-21T19:21:03;14.83;;;13.63;;
15915;SDS011;8057;47.830;-3.870;2023-04-21T19:25:12;15.50;;;14.00;;
15915;SDS011;8057;47.830;-3.870;2023-04-21T19:29:24;13.33;;;12.23;;
15915;SDS011;8057;47.830;-3.870;2023-04-21T19:33:33;14.17;;;12.97;;
15915;SDS011;8057;47.830;-3.870;2023-04-21T19:37:42;14.60;;;13.27;;
15915;SDS011;8057;47.830;-3.870;2023-04-21T19:41:52;16.20;;;14.80;;
15915;SDS011;8057;47.830;-3.870;2023-04-21T19:46:04;14.77;;;13.50;;
15915;SDS011;8057;47.830;-3.870;2023-04-21T19:50:14;15.53;;;14.23;;
15915;SDS011;8057;47.830;-3.870;2023-04-21T19:54:22;15.67;;;14.27;;
15915;SDS011;8057;47.830;-3.870;2023-04-21T19:58:32;15.50;;;14.00;;
15915;SDS011;8057;47.830;-3.870;2023-04-21T20:02:48;16.37;;;14.80;;
15915;SDS011;8057;47.830;-3.870;2023-04-21T20:06:57;16.47;;;14.97;;
15915;SDS011;8057;47.830;-3.870;2023-04-21T20:11:06;16.77;;;15.27;;
15915;SDS011;8057;47.830;-3.870;2023-04-21T20:15:15;16.67;;;15.17;;
15915;SDS011;8057;47.830;-3.870;2023-04-21T20:19:26;17.17;;;15.47;;
15915;SDS011;8057;47.830;-3.870;2023-04-21T20:23:36;18.03;;;16.40;;
15915;SDS011;8057;47.830;-3.870;2023-04-21T20:27:45;17.83;;;16.23;;
15915;SDS011;8057;47.830;-3.870;2023-04-21T20:31:54;18.03;;;16.33;;
15915;SDS011;8057;47.830;-3.870;2023-04-21T20:36:05;18.83;;;17.17;;
15915;SDS011;8057;47.830;-3.870;2023-04-21T20:40:14;20.53;;;18.33;;
15915;SDS011;8057;47.830;-3.870;2023-04-21T20:44:24;18.50;;;16.80;;
15915;SDS011;8057;47.830;-3.870;2023-04-21T20:48:36;19.37;;;17.37;;
15915;SDS011;8057;47.830;-3.870;2023-04-21T20:52:47;20.20;;;18.20;;
15915;SDS011;8057;47.830;-3.870;2023-04-21T20:56:56;19.77;;;17.73;;
15915;SDS011;8057;47.830;-3.870;2023-04-21T21:01:05;16.70;;;15.30;;
15915;SDS011;8057;47.830;-3.870;2023-04-21T21:05:15;17.90;;;16.30;;
15915;SDS011;8057;47.830;-3.870;2023-04-21T21:09:25;17.97;;;16.40;;
15915;SDS011;8057;47.830;-3.870;2023-04-21T21:13:34;17.90;;;16.07;;
15915;SDS011;8057;47.830;-3.870;2023-04-21T21:17:43;21.03;;;18.77;;
15915;SDS011;8057;47.830;-3.870;2023-04-21T21:21:52;19.80;;;17.70;;
15915;SDS011;8057;47.830;-3.870;2023-04-21T21:26:03;19.77;;;17.73;;
15915;SDS011;8057;47.830;-3.870;2023-04-21T21:30:12;19.97;;;18.03;;
15915;SDS011;8057;47.830;-3.870;2023-04-21T21:34:21;18.97;;;17.13;;
15915;SDS011;8057;47.830;-3.870;2023-04-21T21:38:31;22.23;;;18.83;;
15915;SDS011;8057;47.830;-3.870;2023-04-21T21:42:41;19.40;;;17.70;;
15915;SDS011;8057;47.830;-3.870;2023-04-21T21:46:50;21.33;;;19.33;;
15915;SDS011;8057;47.830;-3.870;2023-04-21T21:50:59;20.07;;;17.93;;
15915;SDS011;8057;47.830;-3.870;2023-04-21T21:55:08;19.37;;;17.60;;
15915;SDS011;8057;47.830;-3.870;2023-04-21T21:59:18;19.67;;;17.87;;
15915;SDS011;8057;47.830;-3.870;2023-04-21T22:03:28;17.37;;;15.77;;
15915;SDS011;8057;47.830;-3.870;2023-04-21T22:07:37;17.23;;;15.73;;
15915;SDS011;8057;47.830;-3.870;2023-04-21T22:11:48;17.37;;;15.77;;
15915;SDS011;8057;47.830;-3.870;2023-04-21T22:15:59;16.63;;;15.00;;
15915;SDS011;8057;47.830;-3.870;2023-04-21T22:20:08;15.07;;;13.67;;
15915;SDS011;8057;47.830;-3.870;2023-04-21T22:24:18;15.87;;;14.30;;
15915;SDS011;8057;47.830;-3.870;2023-04-21T22:28:27;14.73;;;13.53;;
15915;SDS011;8057;47.830;-3.870;2023-04-21T22:32:38;13.77;;;12.50;;
15915;SDS011;8057;47.830;-3.870;2023-04-21T22:36:47;13.77;;;12.57;;
15915;SDS011;8057;47.830;-3.870;2023-04-21T22:40:56;15.60;;;14.20;;
15915;SDS011;8057;47.830;-3.870;2023-04-21T22:45:05;16.67;;;15.07;;
15915;SDS011;8057;47.830;-3.870;2023-04-21T22:49:16;17.17;;;15.67;;
15915;SDS011;8057;47.830;-3.870;2023-04-21T22:53:25;15.23;;;13.97;;
15915;SDS011;8057;47.830;-3.870;2023-04-21T22:57:34;14.90;;;13.53;;
15915;SDS011;8057;47.830;-3.870;2023-04-21T23:01:44;14.80;;;13.30;;
15915;SDS011;8057;47.830;-3.870;2023-04-21T23:05:55;14.03;;;12.83;;
15915;SDS011;8057;47.830;-3.870;2023-04-21T23:10:04;14.33;;;12.90;;
15915;SDS011;8057;47.830;-3.870;2023-04-21T23:14:14;13.97;;;12.73;;
15915;SDS011;8057;47.830;-3.870;2023-04-21T23:18:23;13.23;;;11.93;;
15915;SDS011;8057;47.830;-3.870;2023-04-21T23:22:33;13.87;;;12.67;;
15915;SDS011;8057;47.830;-3.870;2023-04-21T23:26:42;13.13;;;11.47;;
15915;SDS011;8057;47.830;-3.870;2023-04-21T23:30:51;14.87;;;13.47;;
15915;SDS011;8057;47.830;-3.870;2023-04-21T23:35:00;15.27;;;13.83;;
15915;SDS011;8057;47.830;-3.870;2023-04-21T23:39:10;15.00;;;13.80;;
15915;SDS011;8057;47.830;-3.870;2023-04-21T23:43:19;14.70;;;13.40;;
15915;SDS011;8057;47.830;-3.870;2023-04-21T23:47:28;15.13;;;13.73;;
15915;SDS011;8057;47.830;-3.870;2023-04-21T23:51:37;13.70;;;12.40;;
15915;SDS011;8057;47.830;-3.870;2023-04-21T23:55:48;14.73;;;13.40;;
15915;SDS011;8057;47.830;-3.870;2023-04-21T23:59:57;16.17;;;14.73;;
